sensor_id;sensor_type;location;lat;lon;timestamp;P1;durP1;ratioP1;P2;durP2;ratioP2
27213;SDS011;14723;55.814;37.460;2023-04-01T00:00:02;19.88;;;11.13;;
27213;SDS011;14723;55.814;37.460;2023-04-01T00:03:12;20.83;;;10.57;;
27213;SDS011;14723;55.814;37.460;2023-04-01T00:06:18;18.63;;;10.55;;
27213;SDS011;14723;55.814;37.460;2023-04-01T00:09:24;20.98;;;11.55;;
27213;SDS011;14723;55.814;37.460;2023-04-01T00:12:30;18.90;;;9.98;;
27213;SDS011;14723;55.814;37.460;2023-04-01T00:15:38;17.30;;;10.35;;
27213;SDS011;14723;55.814;37.460;2023-04-01T00:18:44;17.77;;;9.52;;
27213;SDS011;14723;55.814;37.460;2023-04-01T00:21:49;18.50;;;10.05;;
27213;SDS011;14723;55.814;37.460;2023-04-01T00:24:55;19.67;;;10.27;;
27213;SDS011;14723;55.814;37.460;2023-04-01T00:28:01;19.08;;;10.30;;
27213;SDS011;14723;55.814;37.460;2023-04-01T00:31:09;19.02;;;10.55;;
27213;SDS011;14723;55.814;37.460;2023-04-01T00:34:15;19.92;;;10.18;;
27213;SDS011;14723;55.814;37.460;2023-04-01T00:37:20;16.63;;;9.48;;
27213;SDS011;14723;55.814;37.460;2023-04-01T00:40:27;19.55;;;10.95;;
27213;SDS011;14723;55.814;37.460;2023-04-01T00:43:33;18.73;;;10.35;;
27213;SDS011;14723;55.814;37.460;2023-04-01T00:46:42;20.13;;;10.98;;
27213;SDS011;14723;55.814;37.460;2023-04-01T00:49:48;19.65;;;11.07;;
27213;SDS011;14723;55.814;37.460;2023-04-01T00:52:54;22.88;;;11.20;;
27213;SDS011;14723;55.814;37.460;2023-04-01T00:56:00;21.00;;;11.15;;
27213;SDS011;14723;55.814;37.460;2023-04-01T00:59:08;23.02;;;11.48;;
27213;SDS011;14723;55.814;37.460;2023-04-01T01:02:17;19.05;;;10.70;;
27213;SDS011;14723;55.814;37.460;2023-04-01T01:05:23;19.60;;;10.68;;
27213;SDS011;14723;55.814;37.460;2023-04-01T01:08:43;19.83;;;10.70;;
27213;SDS011;14723;55.814;37.460;2023-04-01T01:11:53;20.48;;;10.68;;
27213;SDS011;14723;55.814;37.460;2023-04-01T01:15:01;18.92;;;10.45;;
27213;SDS011;14723;55.814;37.460;2023-04-01T01:18:12;22.30;;;12.18;;
27213;SDS011;14723;55.814;37.460;2023-04-01T01:21:33;22.80;;;11.68;;
27213;SDS011;14723;55.814;37.460;2023-04-01T01:28:15;19.25;;;10.63;;
27213;SDS011;14723;55.814;37.460;2023-04-01T01:31:26;24.80;;;11.95;;
27213;SDS011;14723;55.814;37.460;2023-04-01T01:34:35;22.65;;;12.00;;
27213;SDS011;14723;55.814;37.460;2023-04-01T01:37:46;20.65;;;11.40;;
27213;SDS011;14723;55.814;37.460;2023-04-01T01:40:53;22.77;;;11.32;;
27213;SDS011;14723;55.814;37.460;2023-04-01T01:44:01;22.35;;;11.25;;
27213;SDS011;14723;55.814;37.460;2023-04-01T01:47:07;20.55;;;10.95;;
27213;SDS011;14723;55.814;37.460;2023-04-01T01:50:13;20.85;;;12.32;;
27213;SDS011;14723;55.814;37.460;2023-04-01T01:53:22;19.60;;;10.55;;
27213;SDS011;14723;55.814;37.460;2023-04-01T01:56:28;25.60;;;11.85;;
27213;SDS011;14723;55.814;37.460;2023-04-01T01:59:34;20.30;;;11.15;;
27213;SDS011;14723;55.814;37.460;2023-04-01T02:02:41;22.33;;;10.55;;
27213;SDS011;14723;55.814;37.460;2023-04-01T02:05:47;20.33;;;11.50;;
27213;SDS011;14723;55.814;37.460;2023-04-01T02:08:56;22.08;;;11.48;;
27213;SDS011;14723;55.814;37.460;2023-04-01T02:12:04;21.35;;;11.60;;
27213;SDS011;14723;55.814;37.460;2023-04-01T02:15:14;23.00;;;12.15;;
27213;SDS011;14723;55.814;37.460;2023-04-01T02:18:20;21.67;;;12.18;;
27213;SDS011;14723;55.814;37.460;2023-04-01T02:21:27;22.05;;;12.27;;
27213;SDS011;14723;55.814;37.460;2023-04-01T02:24:37;21.13;;;11.95;;
27213;SDS011;14723;55.814;37.460;2023-04-01T02:27:45;20.27;;;10.77;;
27213;SDS011;14723;55.814;37.460;2023-04-01T02:30:51;20.40;;;10.85;;
27213;SDS011;14723;55.814;37.460;2023-04-01T02:33:57;24.17;;;11.68;;
27213;SDS011;14723;55.814;37.460;2023-04-01T02:37:03;20.60;;;10.82;;
27213;SDS011;14723;55.814;37.460;2023-04-01T02:40:12;20.90;;;11.35;;
27213;SDS011;14723;55.814;37.460;2023-04-01T02:43:18;20.20;;;11.38;;
27213;SDS011;14723;55.814;37.460;2023-04-01T02:46:24;20.60;;;11.18;;
27213;SDS011;14723;55.814;37.460;2023-04-01T02:49:29;20.23;;;10.43;;
27213;SDS011;14723;55.814;37.460;2023-04-01T02:52:35;21.63;;;11.48;;
27213;SDS011;14723;55.814;37.460;2023-04-01T02:55:43;21.80;;;11.45;;
27213;SDS011;14723;55.814;37.460;2023-04-01T02:58:49;18.65;;;11.15;;
27213;SDS011;14723;55.814;37.460;2023-04-01T03:01:54;27.27;;;12.23;;
27213;SDS011;14723;55.814;37.460;2023-04-01T03:04:59;19.98;;;11.32;;
27213;SDS011;14723;55.814;37.460;2023-04-01T03:08:05;21.42;;;11.27;;
27213;SDS011;14723;55.814;37.460;2023-04-01T03:11:13;22.25;;;10.93;;
27213;SDS011;14723;55.814;37.460;2023-04-01T03:14:19;21.45;;;11.13;;
27213;SDS011;14723;55.814;37.460;2023-04-01T03:17:24;21.25;;;10.93;;
27213;SDS011;14723;55.814;37.460;2023-04-01T03:20:29;20.67;;;10.60;;
27213;SDS011;14723;55.814;37.460;2023-04-01T03:23:35;21.15;;;11.80;;
27213;SDS011;14723;55.814;37.460;2023-04-01T03:26:43;20.02;;;11.65;;
27213;SDS011;14723;55.814;37.460;2023-04-01T03:32:54;23.15;;;10.57;;
27213;SDS011;14723;55.814;37.460;2023-04-01T03:35:59;19.10;;;10.82;;
27213;SDS011;14723;55.814;37.460;2023-04-01T03:39:08;21.75;;;11.15;;
27213;SDS011;14723;55.814;37.460;2023-04-01T03:42:18;20.02;;;11.15;;
27213;SDS011;14723;55.814;37.460;2023-04-01T03:45:24;18.23;;;10.82;;
27213;SDS011;14723;55.814;37.460;2023-04-01T03:48:29;21.27;;;10.95;;
27213;SDS011;14723;55.814;37.460;2023-04-01T03:51:35;27.13;;;10.82;;
27213;SDS011;14723;55.814;37.460;2023-04-01T03:54:41;19.90;;;10.32;;
27213;SDS011;14723;55.814;37.460;2023-04-01T03:57:49;23.63;;;11.10;;
27213;SDS011;14723;55.814;37.460;2023-04-01T04:00:54;19.92;;;10.50;;
27213;SDS011;14723;55.814;37.460;2023-04-01T04:03:59;20.45;;;11.05;;
27213;SDS011;14723;55.814;37.460;2023-04-01T04:07:05;19.75;;;10.48;;
27213;SDS011;14723;55.814;37.460;2023-04-01T04:10:30;20.50;;;10.98;;
27213;SDS011;14723;55.814;37.460;2023-04-01T04:13:39;19.17;;;10.98;;
27213;SDS011;14723;55.814;37.460;2023-04-01T04:16:45;19.25;;;10.90;;
27213;SDS011;14723;55.814;37.460;2023-04-01T04:19:50;21.73;;;11.68;;
27213;SDS011;14723;55.814;37.460;2023-04-01T04:22:56;22.42;;;12.38;;
27213;SDS011;14723;55.814;37.460;2023-04-01T04:26:02;21.20;;;11.82;;
27213;SDS011;14723;55.814;37.460;2023-04-01T04:29:11;21.33;;;11.65;;
27213;SDS011;14723;55.814;37.460;2023-04-01T04:32:16;21.85;;;11.07;;
27213;SDS011;14723;55.814;37.460;2023-04-01T04:35:22;20.73;;;11.02;;
27213;SDS011;14723;55.814;37.460;2023-04-01T04:38:28;22.92;;;11.18;;
27213;SDS011;14723;55.814;37.460;2023-04-01T04:41:33;19.05;;;11.07;;
27213;SDS011;14723;55.814;37.460;2023-04-01T04:44:41;21.85;;;10.60;;
27213;SDS011;14723;55.814;37.460;2023-04-01T04:47:47;20.13;;;10.68;;
27213;SDS011;14723;55.814;37.460;2023-04-01T04:50:53;18.98;;;10.75;;
27213;SDS011;14723;55.814;37.460;2023-04-01T04:53:58;21.08;;;12.85;;
27213;SDS011;14723;55.814;37.460;2023-04-01T04:57:17;22.50;;;11.02;;
27213;SDS011;14723;55.814;37.460;2023-04-01T05:00:31;19.92;;;11.25;;
27213;SDS011;14723;55.814;37.460;2023-04-01T05:03:40;18.30;;;9.52;;
27213;SDS011;14723;55.814;37.460;2023-04-01T05:06:46;20.95;;;11.15;;
27213;SDS011;14723;55.814;37.460;2023-04-01T05:09:52;20.20;;;11.18;;
27213;SDS011;14723;55.814;37.460;2023-04-01T05:12:58;20.02;;;10.73;;
27213;SDS011;14723;55.814;37.460;2023-04-01T05:16:07;20.23;;;10.68;;
27213;SDS011;14723;55.814;37.460;2023-04-01T05:22:17;19.85;;;10.35;;
27213;SDS011;14723;55.814;37.460;2023-04-01T05:25:23;23.38;;;11.55;;
27213;SDS011;14723;55.814;37.460;2023-04-01T05:28:28;18.55;;;10.90;;
27213;SDS011;14723;55.814;37.460;2023-04-01T05:31:36;18.45;;;11.30;;
27213;SDS011;14723;55.814;37.460;2023-04-01T05:34:42;20.65;;;11.45;;
27213;SDS011;14723;55.814;37.460;2023-04-01T05:37:47;21.27;;;11.77;;
27213;SDS011;14723;55.814;37.460;2023-04-01T05:40:58;21.23;;;12.20;;
27213;SDS011;14723;55.814;37.460;2023-04-01T05:44:04;21.02;;;12.20;;
27213;SDS011;14723;55.814;37.460;2023-04-01T05:47:33;23.90;;;13.30;;
27213;SDS011;14723;55.814;37.460;2023-04-01T05:50:39;22.55;;;12.15;;
27213;SDS011;14723;55.814;37.460;2023-04-01T05:53:46;19.73;;;11.70;;
27213;SDS011;14723;55.814;37.460;2023-04-01T05:56:52;20.50;;;11.80;;
27213;SDS011;14723;55.814;37.460;2023-04-01T05:59:58;15.93;;;10.77;;
27213;SDS011;14723;55.814;37.460;2023-04-01T06:03:15;16.17;;;9.88;;
27213;SDS011;14723;55.814;37.460;2023-04-01T06:06:23;17.95;;;11.13;;
27213;SDS011;14723;55.814;37.460;2023-04-01T06:09:35;20.85;;;11.90;;
27213;SDS011;14723;55.814;37.460;2023-04-01T06:12:45;18.52;;;11.15;;
27213;SDS011;14723;55.814;37.460;2023-04-01T06:15:53;16.65;;;10.80;;
27213;SDS011;14723;55.814;37.460;2023-04-01T06:19:19;18.63;;;10.82;;
27213;SDS011;14723;55.814;37.460;2023-04-01T06:22:29;18.00;;;10.43;;
27213;SDS011;14723;55.814;37.460;2023-04-01T06:25:39;18.85;;;11.10;;
27213;SDS011;14723;55.814;37.460;2023-04-01T06:32:20;20.25;;;10.98;;
27213;SDS011;14723;55.814;37.460;2023-04-01T06:35:34;20.35;;;10.90;;
27213;SDS011;14723;55.814;37.460;2023-04-01T06:38:46;18.48;;;10.48;;
27213;SDS011;14723;55.814;37.460;2023-04-01T06:41:58;14.50;;;9.23;;
27213;SDS011;14723;55.814;37.460;2023-04-01T06:45:14;18.90;;;9.27;;
27213;SDS011;14723;55.814;37.460;2023-04-01T06:48:45;19.77;;;10.07;;
27213;SDS011;14723;55.814;37.460;2023-04-01T06:52:15;23.35;;;12.02;;
27213;SDS011;14723;55.814;37.460;2023-04-01T06:55:55;25.02;;;12.98;;
27213;SDS011;14723;55.814;37.460;2023-04-01T06:59:18;27.40;;;12.77;;
27213;SDS011;14723;55.814;37.460;2023-04-01T07:02:27;25.08;;;12.75;;
27213;SDS011;14723;55.814;37.460;2023-04-01T07:05:33;30.17;;;12.77;;
27213;SDS011;14723;55.814;37.460;2023-04-01T07:08:42;27.95;;;12.50;;
27213;SDS011;14723;55.814;37.460;2023-04-01T07:11:49;26.38;;;12.98;;
27213;SDS011;14723;55.814;37.460;2023-04-01T07:15:16;30.45;;;13.73;;
27213;SDS011;14723;55.814;37.460;2023-04-01T07:18:23;23.30;;;12.45;;
27213;SDS011;14723;55.814;37.460;2023-04-01T07:21:31;26.70;;;12.52;;
27213;SDS011;14723;55.814;37.460;2023-04-01T07:24:50;29.38;;;12.05;;
27213;SDS011;14723;55.814;37.460;2023-04-01T07:27:59;26.63;;;12.93;;
27213;SDS011;14723;55.814;37.460;2023-04-01T07:31:09;30.50;;;15.00;;
27213;SDS011;14723;55.814;37.460;2023-04-01T07:34:17;33.25;;;14.80;;
27213;SDS011;14723;55.814;37.460;2023-04-01T07:37:26;28.65;;;14.25;;
27213;SDS011;14723;55.814;37.460;2023-04-01T07:40:39;30.73;;;13.93;;
27213;SDS011;14723;55.814;37.460;2023-04-01T07:43:51;27.65;;;14.23;;
27213;SDS011;14723;55.814;37.460;2023-04-01T07:47:05;24.23;;;13.05;;
27213;SDS011;14723;55.814;37.460;2023-04-01T07:50:17;27.60;;;14.63;;
27213;SDS011;14723;55.814;37.460;2023-04-01T07:53:26;27.83;;;12.82;;
27213;SDS011;14723;55.814;37.460;2023-04-01T07:56:38;24.60;;;13.68;;
27213;SDS011;14723;55.814;37.460;2023-04-01T07:59:53;25.30;;;14.10;;
27213;SDS011;14723;55.814;37.460;2023-04-01T08:03:18;27.77;;;13.23;;
27213;SDS011;14723;55.814;37.460;2023-04-01T08:06:27;25.75;;;13.10;;
27213;SDS011;14723;55.814;37.460;2023-04-01T08:09:37;29.52;;;14.85;;
27213;SDS011;14723;55.814;37.460;2023-04-01T08:13:14;30.55;;;14.07;;
27213;SDS011;14723;55.814;37.460;2023-04-01T08:17:01;24.85;;;13.98;;
27213;SDS011;14723;55.814;37.460;2023-04-01T08:20:16;27.70;;;13.68;;
27213;SDS011;14723;55.814;37.460;2023-04-01T08:23:24;24.58;;;12.70;;
27213;SDS011;14723;55.814;37.460;2023-04-01T08:26:32;25.50;;;12.70;;
27213;SDS011;14723;55.814;37.460;2023-04-01T08:29:42;25.67;;;13.55;;
27213;SDS011;14723;55.814;37.460;2023-04-01T08:32:51;31.10;;;13.73;;
27213;SDS011;14723;55.814;37.460;2023-04-01T08:36:02;28.83;;;12.77;;
27213;SDS011;14723;55.814;37.460;2023-04-01T08:39:09;24.75;;;12.07;;
27213;SDS011;14723;55.814;37.460;2023-04-01T08:42:31;27.77;;;11.45;;
27213;SDS011;14723;55.814;37.460;2023-04-01T08:45:52;27.10;;;12.95;;
27213;SDS011;14723;55.814;37.460;2023-04-01T08:49:07;23.90;;;12.07;;
27213;SDS011;14723;55.814;37.460;2023-04-01T08:52:22;26.98;;;12.10;;
27213;SDS011;14723;55.814;37.460;2023-04-01T08:55:31;21.73;;;11.27;;
27213;SDS011;14723;55.814;37.460;2023-04-01T09:05:47;25.52;;;10.35;;
27213;SDS011;14723;55.814;37.460;2023-04-01T09:08:59;28.02;;;10.95;;
27213;SDS011;14723;55.814;37.460;2023-04-01T09:15:37;19.58;;;9.27;;
27213;SDS011;14723;55.814;37.460;2023-04-01T09:19:02;16.45;;;8.68;;
27213;SDS011;14723;55.814;37.460;2023-04-01T09:28:56;17.45;;;8.18;;
27213;SDS011;14723;55.814;37.460;2023-04-01T09:32:10;19.55;;;8.48;;
27213;SDS011;14723;55.814;37.460;2023-04-01T09:35:37;17.42;;;8.40;;
27213;SDS011;14723;55.814;37.460;2023-04-01T09:38:48;14.32;;;7.32;;
27213;SDS011;14723;55.814;37.460;2023-04-01T09:42:06;18.45;;;8.55;;
27213;SDS011;14723;55.814;37.460;2023-04-01T09:45:32;16.42;;;7.63;;
27213;SDS011;14723;55.814;37.460;2023-04-01T09:52:12;15.25;;;8.50;;
27213;SDS011;14723;55.814;37.460;2023-04-01T09:55:45;17.88;;;7.70;;
27213;SDS011;14723;55.814;37.460;2023-04-01T09:59:01;17.88;;;8.63;;
27213;SDS011;14723;55.814;37.460;2023-04-01T10:06:20;16.67;;;9.20;;
27213;SDS011;14723;55.814;37.460;2023-04-01T10:09:39;23.27;;;9.80;;
27213;SDS011;14723;55.814;37.460;2023-04-01T10:16:25;21.95;;;9.35;;
27213;SDS011;14723;55.814;37.460;2023-04-01T10:19:41;24.73;;;9.85;;
27213;SDS011;14723;55.814;37.460;2023-04-01T10:23:01;20.08;;;9.45;;
27213;SDS011;14723;55.814;37.460;2023-04-01T10:26:19;18.10;;;9.23;;
27213;SDS011;14723;55.814;37.460;2023-04-01T10:33:25;15.73;;;7.22;;
27213;SDS011;14723;55.814;37.460;2023-04-01T10:36:48;13.70;;;6.93;;
27213;SDS011;14723;55.814;37.460;2023-04-01T10:40:12;13.38;;;6.78;;
27213;SDS011;14723;55.814;37.460;2023-04-01T10:47:18;13.43;;;6.72;;
27213;SDS011;14723;55.814;37.460;2023-04-01T10:50:35;12.77;;;6.93;;
27213;SDS011;14723;55.814;37.460;2023-04-01T11:01:45;13.07;;;6.40;;
27213;SDS011;14723;55.814;37.460;2023-04-01T11:15:55;9.82;;;5.68;;
27213;SDS011;14723;55.814;37.460;2023-04-01T11:25:52;10.25;;;6.10;;
27213;SDS011;14723;55.814;37.460;2023-04-01T11:29:33;11.38;;;5.57;;
27213;SDS011;14723;55.814;37.460;2023-04-01T11:32:59;9.57;;;5.03;;
27213;SDS011;14723;55.814;37.460;2023-04-01T11:36:09;10.38;;;5.45;;
27213;SDS011;14723;55.814;37.460;2023-04-01T11:39:20;11.65;;;6.10;;
27213;SDS011;14723;55.814;37.460;2023-04-01T11:42:41;11.70;;;5.03;;
27213;SDS011;14723;55.814;37.460;2023-04-01T11:46:10;9.23;;;5.35;;
27213;SDS011;14723;55.814;37.460;2023-04-01T11:52:38;10.13;;;4.93;;
27213;SDS011;14723;55.814;37.460;2023-04-01T11:55:53;10.48;;;4.55;;
27213;SDS011;14723;55.814;37.460;2023-04-01T11:59:08;8.63;;;5.05;;
27213;SDS011;14723;55.814;37.460;2023-04-01T12:02:19;9.80;;;4.90;;
27213;SDS011;14723;55.814;37.460;2023-04-01T12:05:31;10.10;;;4.55;;
27213;SDS011;14723;55.814;37.460;2023-04-01T12:08:40;7.63;;;5.13;;
27213;SDS011;14723;55.814;37.460;2023-04-01T12:11:51;10.50;;;5.10;;
27213;SDS011;14723;55.814;37.460;2023-04-01T12:15:02;12.18;;;4.85;;
27213;SDS011;14723;55.814;37.460;2023-04-01T12:18:14;8.70;;;5.00;;
27213;SDS011;14723;55.814;37.460;2023-04-01T12:21:24;10.18;;;5.65;;
27213;SDS011;14723;55.814;37.460;2023-04-01T12:27:38;17.90;;;6.72;;
27213;SDS011;14723;55.814;37.460;2023-04-01T12:30:50;10.32;;;5.50;;
27213;SDS011;14723;55.814;37.460;2023-04-01T12:34:13;11.38;;;5.30;;
27213;SDS011;14723;55.814;37.460;2023-04-01T12:37:28;14.93;;;5.55;;
27213;SDS011;14723;55.814;37.460;2023-04-01T12:40:46;13.02;;;5.85;;
27213;SDS011;14723;55.814;37.460;2023-04-01T12:54:20;10.50;;;5.30;;
27213;SDS011;14723;55.814;37.460;2023-04-01T12:57:34;12.27;;;5.45;;
27213;SDS011;14723;55.814;37.460;2023-04-01T13:00:48;7.70;;;4.95;;
27213;SDS011;14723;55.814;37.460;2023-04-01T13:04:05;12.38;;;5.25;;
27213;SDS011;14723;55.814;37.460;2023-04-01T13:07:23;13.20;;;5.45;;
27213;SDS011;14723;55.814;37.460;2023-04-01T13:10:41;11.38;;;5.53;;
27213;SDS011;14723;55.814;37.460;2023-04-01T13:13:55;11.53;;;5.80;;
27213;SDS011;14723;55.814;37.460;2023-04-01T13:17:05;14.23;;;5.18;;
27213;SDS011;14723;55.814;37.460;2023-04-01T13:20:14;9.27;;;4.95;;
27213;SDS011;14723;55.814;37.460;2023-04-01T13:23:27;9.95;;;5.32;;
27213;SDS011;14723;55.814;37.460;2023-04-01T13:26:37;16.20;;;5.47;;
27213;SDS011;14723;55.814;37.460;2023-04-01T13:29:47;15.07;;;6.10;;
27213;SDS011;14723;55.814;37.460;2023-04-01T13:32:56;13.68;;;5.18;;
27213;SDS011;14723;55.814;37.460;2023-04-01T13:36:10;14.77;;;5.53;;
27213;SDS011;14723;55.814;37.460;2023-04-01T13:39:24;12.38;;;5.80;;
27213;SDS011;14723;55.814;37.460;2023-04-01T13:42:35;10.35;;;5.70;;
27213;SDS011;14723;55.814;37.460;2023-04-01T13:45:50;10.60;;;5.65;;
27213;SDS011;14723;55.814;37.460;2023-04-01T13:49:03;20.30;;;6.32;;
27213;SDS011;14723;55.814;37.460;2023-04-01T13:55:37;13.15;;;6.63;;
27213;SDS011;14723;55.814;37.460;2023-04-01T13:58:55;15.70;;;7.03;;
27213;SDS011;14723;55.814;37.460;2023-04-01T14:02:07;13.38;;;6.75;;
27213;SDS011;14723;55.814;37.460;2023-04-01T14:05:32;13.63;;;7.47;;
27213;SDS011;14723;55.814;37.460;2023-04-01T14:08:53;14.93;;;7.43;;
27213;SDS011;14723;55.814;37.460;2023-04-01T14:12:02;18.73;;;7.10;;
27213;SDS011;14723;55.814;37.460;2023-04-01T14:15:23;11.80;;;7.00;;
27213;SDS011;14723;55.814;37.460;2023-04-01T14:18:33;11.68;;;6.60;;
27213;SDS011;14723;55.814;37.460;2023-04-01T14:21:41;15.70;;;7.53;;
27213;SDS011;14723;55.814;37.460;2023-04-01T14:24:59;11.90;;;6.18;;
27213;SDS011;14723;55.814;37.460;2023-04-01T14:28:12;16.45;;;7.10;;
27213;SDS011;14723;55.814;37.460;2023-04-01T14:31:26;12.93;;;7.10;;
27213;SDS011;14723;55.814;37.460;2023-04-01T14:34:37;13.50;;;6.93;;
27213;SDS011;14723;55.814;37.460;2023-04-01T14:41:15;17.92;;;7.72;;
27213;SDS011;14723;55.814;37.460;2023-04-01T14:44:30;19.42;;;8.52;;
27213;SDS011;14723;55.814;37.460;2023-04-01T14:47:44;20.30;;;9.73;;
27213;SDS011;14723;55.814;37.460;2023-04-01T14:50:52;15.50;;;7.68;;
27213;SDS011;14723;55.814;37.460;2023-04-01T14:54:00;15.23;;;7.97;;
27213;SDS011;14723;55.814;37.460;2023-04-01T14:57:10;14.73;;;7.95;;
27213;SDS011;14723;55.814;37.460;2023-04-01T15:00:17;18.48;;;8.52;;
27213;SDS011;14723;55.814;37.460;2023-04-01T15:03:26;15.88;;;8.75;;
27213;SDS011;14723;55.814;37.460;2023-04-01T15:06:37;14.65;;;8.52;;
27213;SDS011;14723;55.814;37.460;2023-04-01T15:09:44;19.65;;;8.52;;
27213;SDS011;14723;55.814;37.460;2023-04-01T15:12:57;16.95;;;8.80;;
27213;SDS011;14723;55.814;37.460;2023-04-01T15:16:10;25.75;;;9.27;;
27213;SDS011;14723;55.814;37.460;2023-04-01T15:19:25;19.13;;;9.70;;
27213;SDS011;14723;55.814;37.460;2023-04-01T15:22:44;18.00;;;9.63;;
27213;SDS011;14723;55.814;37.460;2023-04-01T15:29:28;15.07;;;8.63;;
27213;SDS011;14723;55.814;37.460;2023-04-01T15:32:40;20.58;;;9.57;;
27213;SDS011;14723;55.814;37.460;2023-04-01T15:35:53;19.10;;;9.63;;
27213;SDS011;14723;55.814;37.460;2023-04-01T15:39:04;18.13;;;10.18;;
27213;SDS011;14723;55.814;37.460;2023-04-01T15:45:43;17.08;;;9.32;;
27213;SDS011;14723;55.814;37.460;2023-04-01T15:48:53;25.65;;;11.20;;
27213;SDS011;14723;55.814;37.460;2023-04-01T15:52:07;17.63;;;10.30;;
27213;SDS011;14723;55.814;37.460;2023-04-01T15:55:18;17.85;;;10.48;;
27213;SDS011;14723;55.814;37.460;2023-04-01T15:58:30;18.48;;;10.18;;
27213;SDS011;14723;55.814;37.460;2023-04-01T16:01:39;16.85;;;10.38;;
27213;SDS011;14723;55.814;37.460;2023-04-01T16:04:50;16.85;;;10.32;;
27213;SDS011;14723;55.814;37.460;2023-04-01T16:08:06;16.60;;;11.00;;
27213;SDS011;14723;55.814;37.460;2023-04-01T16:11:18;18.65;;;11.18;;
27213;SDS011;14723;55.814;37.460;2023-04-01T16:14:29;22.35;;;12.00;;
27213;SDS011;14723;55.814;37.460;2023-04-01T16:17:44;21.83;;;11.23;;
27213;SDS011;14723;55.814;37.460;2023-04-01T16:20:51;16.35;;;10.50;;
27213;SDS011;14723;55.814;37.460;2023-04-01T16:24:02;23.33;;;13.40;;
27213;SDS011;14723;55.814;37.460;2023-04-01T16:27:12;19.17;;;11.63;;
27213;SDS011;14723;55.814;37.460;2023-04-01T16:33:40;20.90;;;10.90;;
27213;SDS011;14723;55.814;37.460;2023-04-01T16:36:47;19.35;;;10.23;;
27213;SDS011;14723;55.814;37.460;2023-04-01T16:40:02;19.05;;;10.95;;
27213;SDS011;14723;55.814;37.460;2023-04-01T16:43:11;18.10;;;11.07;;
27213;SDS011;14723;55.814;37.460;2023-04-01T16:46:26;18.27;;;10.88;;
27213;SDS011;14723;55.814;37.460;2023-04-01T16:49:32;20.38;;;11.70;;
27213;SDS011;14723;55.814;37.460;2023-04-01T16:52:48;20.92;;;11.10;;
27213;SDS011;14723;55.814;37.460;2023-04-01T16:56:10;17.13;;;10.35;;
27213;SDS011;14723;55.814;37.460;2023-04-01T16:59:18;19.23;;;10.10;;
27213;SDS011;14723;55.814;37.460;2023-04-01T17:02:26;22.65;;;11.45;;
27213;SDS011;14723;55.814;37.460;2023-04-01T17:05:37;16.33;;;9.95;;
27213;SDS011;14723;55.814;37.460;2023-04-01T17:08:49;16.75;;;9.48;;
27213;SDS011;14723;55.814;37.460;2023-04-01T17:12:01;15.80;;;9.48;;
27213;SDS011;14723;55.814;37.460;2023-04-01T17:15:13;15.13;;;9.20;;
27213;SDS011;14723;55.814;37.460;2023-04-01T17:18:25;15.43;;;8.60;;
27213;SDS011;14723;55.814;37.460;2023-04-01T17:21:43;14.07;;;8.82;;
27213;SDS011;14723;55.814;37.460;2023-04-01T17:24:53;17.38;;;9.40;;
27213;SDS011;14723;55.814;37.460;2023-04-01T17:28:12;15.88;;;9.15;;
27213;SDS011;14723;55.814;37.460;2023-04-01T17:31:27;18.00;;;10.07;;
27213;SDS011;14723;55.814;37.460;2023-04-01T17:34:42;17.15;;;10.50;;
27213;SDS011;14723;55.814;37.460;2023-04-01T17:37:56;19.08;;;10.57;;
27213;SDS011;14723;55.814;37.460;2023-04-01T17:41:05;18.45;;;10.85;;
27213;SDS011;14723;55.814;37.460;2023-04-01T17:44:19;18.88;;;11.13;;
27213;SDS011;14723;55.814;37.460;2023-04-01T17:47:31;17.50;;;10.43;;
27213;SDS011;14723;55.814;37.460;2023-04-01T17:50:48;16.40;;;10.45;;
27213;SDS011;14723;55.814;37.460;2023-04-01T17:53:56;18.90;;;10.23;;
27213;SDS011;14723;55.814;37.460;2023-04-01T18:00:18;17.30;;;9.80;;
27213;SDS011;14723;55.814;37.460;2023-04-01T18:03:33;15.45;;;10.23;;
27213;SDS011;14723;55.814;37.460;2023-04-01T18:06:46;18.85;;;10.55;;
27213;SDS011;14723;55.814;37.460;2023-04-01T18:10:01;23.65;;;11.23;;
27213;SDS011;14723;55.814;37.460;2023-04-01T18:13:16;19.08;;;10.98;;
27213;SDS011;14723;55.814;37.460;2023-04-01T18:16:37;20.80;;;11.25;;
27213;SDS011;14723;55.814;37.460;2023-04-01T18:19:48;21.95;;;11.80;;
27213;SDS011;14723;55.814;37.460;2023-04-01T18:22:57;19.33;;;11.02;;
27213;SDS011;14723;55.814;37.460;2023-04-01T18:26:05;18.25;;;11.45;;
27213;SDS011;14723;55.814;37.460;2023-04-01T18:29:18;22.30;;;11.98;;
27213;SDS011;14723;55.814;37.460;2023-04-01T18:32:34;19.20;;;11.60;;
27213;SDS011;14723;55.814;37.460;2023-04-01T18:35:46;22.63;;;11.93;;
27213;SDS011;14723;55.814;37.460;2023-04-01T18:38:52;21.45;;;12.20;;
27213;SDS011;14723;55.814;37.460;2023-04-01T18:42:00;23.52;;;12.48;;
27213;SDS011;14723;55.814;37.460;2023-04-01T18:45:14;20.77;;;11.85;;
27213;SDS011;14723;55.814;37.460;2023-04-01T18:48:33;20.83;;;11.68;;
27213;SDS011;14723;55.814;37.460;2023-04-01T18:51:41;23.33;;;12.48;;
27213;SDS011;14723;55.814;37.460;2023-04-01T18:54:55;22.05;;;11.70;;
27213;SDS011;14723;55.814;37.460;2023-04-01T18:58:12;20.58;;;11.63;;
27213;SDS011;14723;55.814;37.460;2023-04-01T19:01:28;20.08;;;11.30;;
27213;SDS011;14723;55.814;37.460;2023-04-01T19:04:43;18.02;;;11.25;;
27213;SDS011;14723;55.814;37.460;2023-04-01T19:07:52;25.85;;;12.98;;
27213;SDS011;14723;55.814;37.460;2023-04-01T19:11:01;20.33;;;10.88;;
27213;SDS011;14723;55.814;37.460;2023-04-01T19:14:13;20.77;;;11.25;;
27213;SDS011;14723;55.814;37.460;2023-04-01T19:17:25;19.48;;;12.00;;
27213;SDS011;14723;55.814;37.460;2023-04-01T19:20:36;23.95;;;12.27;;
27213;SDS011;14723;55.814;37.460;2023-04-01T19:27:08;18.98;;;11.38;;
27213;SDS011;14723;55.814;37.460;2023-04-01T19:30:21;18.52;;;11.48;;
27213;SDS011;14723;55.814;37.460;2023-04-01T19:33:36;20.70;;;10.95;;
27213;SDS011;14723;55.814;37.460;2023-04-01T19:36:48;23.23;;;11.65;;
27213;SDS011;14723;55.814;37.460;2023-04-01T19:39:55;22.17;;;11.98;;
27213;SDS011;14723;55.814;37.460;2023-04-01T19:43:04;21.13;;;11.43;;
27213;SDS011;14723;55.814;37.460;2023-04-01T19:46:16;22.08;;;11.80;;
27213;SDS011;14723;55.814;37.460;2023-04-01T19:49:26;21.58;;;11.95;;
27213;SDS011;14723;55.814;37.460;2023-04-01T19:52:38;21.13;;;11.30;;
27213;SDS011;14723;55.814;37.460;2023-04-01T19:55:45;24.80;;;13.20;;
27213;SDS011;14723;55.814;37.460;2023-04-01T19:58:54;19.15;;;11.32;;
27213;SDS011;14723;55.814;37.460;2023-04-01T20:02:19;24.83;;;12.95;;
27213;SDS011;14723;55.814;37.460;2023-04-01T20:05:35;21.13;;;11.30;;
27213;SDS011;14723;55.814;37.460;2023-04-01T20:08:48;21.58;;;12.55;;
27213;SDS011;14723;55.814;37.460;2023-04-01T20:11:56;21.70;;;11.57;;
27213;SDS011;14723;55.814;37.460;2023-04-01T20:15:04;22.95;;;11.90;;
27213;SDS011;14723;55.814;37.460;2023-04-01T20:18:25;20.13;;;11.43;;
27213;SDS011;14723;55.814;37.460;2023-04-01T20:21:33;21.90;;;13.02;;
27213;SDS011;14723;55.814;37.460;2023-04-01T20:24:44;26.17;;;12.57;;